sensor_id;sensor_type;location;lat;lon;timestamp;P1;durP1;ratioP1;P2;durP2;ratioP2
10333;SDS011;5212;47.892;16.406;2023-08-20T00:00:22;13.73;;;8.50;;
10333;SDS011;5212;47.892;16.406;2023-08-20T00:02:49;12.57;;;8.73;;
10333;SDS011;5212;47.892;16.406;2023-08-20T00:05:17;11.53;;;8.00;;
10333;SDS011;5212;47.892;16.406;2023-08-20T00:07:44;11.00;;;8.00;;
10333;SDS011;5212;47.892;16.406;2023-08-20T00:10:10;10.83;;;7.87;;
10333;SDS011;5212;47.892;16.406;2023-08-20T00:12:37;10.20;;;7.50;;
10333;SDS011;5212;47.892;16.406;2023-08-20T00:15:03;9.87;;;7.23;;
10333;SDS011;5212;47.892;16.406;2023-08-20T00:17:31;10.63;;;6.97;;
10333;SDS011;5212;47.892;16.406;2023-08-20T00:19:57;10.57;;;8.20;;
10333;SDS011;5212;47.892;16.406;2023-08-20T00:22:24;12.47;;;8.30;;
10333;SDS011;5212;47.892;16.406;2023-08-20T00:24:51;11.13;;;8.13;;
10333;SDS011;5212;47.892;16.406;2023-08-20T00:27:18;10.20;;;7.60;;
10333;SDS011;5212;47.892;16.406;2023-08-20T00:29:44;9.73;;;7.97;;
10333;SDS011;5212;47.892;16.406;2023-08-20T00:32:10;11.03;;;7.70;;
10333;SDS011;5212;47.892;16.406;2023-08-20T00:34:36;11.37;;;8.27;;
10333;SDS011;5212;47.892;16.406;2023-08-20T00:37:03;13.13;;;8.90;;
10333;SDS011;5212;47.892;16.406;2023-08-20T00:39:29;11.47;;;8.43;;
10333;SDS011;5212;47.892;16.406;2023-08-20T00:41:55;13.07;;;9.37;;
10333;SDS011;5212;47.892;16.406;2023-08-20T00:44:21;10.73;;;8.20;;
10333;SDS011;5212;47.892;16.406;2023-08-20T00:46:47;11.33;;;8.03;;
10333;SDS011;5212;47.892;16.406;2023-08-20T00:49:14;10.40;;;7.93;;
10333;SDS011;5212;47.892;16.406;2023-08-20T00:51:40;12.00;;;8.73;;
10333;SDS011;5212;47.892;16.406;2023-08-20T00:54:06;12.37;;;8.40;;
10333;SDS011;5212;47.892;16.406;2023-08-20T00:56:32;10.33;;;7.70;;
10333;SDS011;5212;47.892;16.406;2023-08-20T00:58:58;13.50;;;8.57;;
10333;SDS011;5212;47.892;16.406;2023-08-20T01:01:24;11.00;;;8.37;;
10333;SDS011;5212;47.892;16.406;2023-08-20T01:03:51;11.20;;;8.50;;
10333;SDS011;5212;47.892;16.406;2023-08-20T01:06:20;12.23;;;8.07;;
10333;SDS011;5212;47.892;16.406;2023-08-20T01:08:50;10.80;;;8.07;;
10333;SDS011;5212;47.892;16.406;2023-08-20T01:11:24;10.53;;;8.20;;
10333;SDS011;5212;47.892;16.406;2023-08-20T01:13:54;12.37;;;8.50;;
10333;SDS011;5212;47.892;16.406;2023-08-20T01:16:20;11.27;;;8.43;;
10333;SDS011;5212;47.892;16.406;2023-08-20T01:18:47;10.57;;;8.33;;
10333;SDS011;5212;47.892;16.406;2023-08-20T01:21:16;11.40;;;8.43;;
10333;SDS011;5212;47.892;16.406;2023-08-20T01:23:55;9.83;;;7.83;;
10333;SDS011;5212;47.892;16.406;2023-08-20T01:29:27;13.37;;;9.20;;
10333;SDS011;5212;47.892;16.406;2023-08-20T01:31:54;13.67;;;9.10;;
10333;SDS011;5212;47.892;16.406;2023-08-20T01:34:20;12.67;;;9.00;;
10333;SDS011;5212;47.892;16.406;2023-08-20T01:36:46;11.40;;;8.70;;
10333;SDS011;5212;47.892;16.406;2023-08-20T01:39:12;11.83;;;9.07;;
10333;SDS011;5212;47.892;16.406;2023-08-20T01:41:39;11.03;;;8.13;;
10333;SDS011;5212;47.892;16.406;2023-08-20T01:44:05;11.30;;;8.40;;
10333;SDS011;5212;47.892;16.406;2023-08-20T01:46:33;11.67;;;8.70;;
10333;SDS011;5212;47.892;16.406;2023-08-20T01:48:59;12.80;;;9.13;;
10333;SDS011;5212;47.892;16.406;2023-08-20T01:51:25;12.03;;;7.87;;
10333;SDS011;5212;47.892;16.406;2023-08-20T01:53:51;13.07;;;9.27;;
10333;SDS011;5212;47.892;16.406;2023-08-20T01:56:17;12.00;;;8.43;;
10333;SDS011;5212;47.892;16.406;2023-08-20T01:58:43;14.07;;;9.70;;
10333;SDS011;5212;47.892;16.406;2023-08-20T02:01:09;15.03;;;9.73;;
10333;SDS011;5212;47.892;16.406;2023-08-20T02:03:35;11.80;;;8.73;;
10333;SDS011;5212;47.892;16.406;2023-08-20T02:06:02;10.33;;;7.97;;
10333;SDS011;5212;47.892;16.406;2023-08-20T02:08:28;10.77;;;7.73;;
10333;SDS011;5212;47.892;16.406;2023-08-20T02:10:59;10.87;;;7.77;;
10333;SDS011;5212;47.892;16.406;2023-08-20T02:13:25;11.43;;;8.33;;
10333;SDS011;5212;47.892;16.406;2023-08-20T02:15:56;13.63;;;8.67;;
10333;SDS011;5212;47.892;16.406;2023-08-20T02:18:23;11.90;;;8.70;;
10333;SDS011;5212;47.892;16.406;2023-08-20T02:20:50;13.27;;;8.93;;
10333;SDS011;5212;47.892;16.406;2023-08-20T02:23:16;12.53;;;8.37;;
10333;SDS011;5212;47.892;16.406;2023-08-20T02:25:43;12.57;;;8.40;;
10333;SDS011;5212;47.892;16.406;2023-08-20T02:28:09;14.80;;;9.67;;
10333;SDS011;5212;47.892;16.406;2023-08-20T02:30:38;11.80;;;9.30;;
10333;SDS011;5212;47.892;16.406;2023-08-20T02:33:05;12.43;;;9.27;;
10333;SDS011;5212;47.892;16.406;2023-08-20T02:35:31;13.40;;;9.30;;
10333;SDS011;5212;47.892;16.406;2023-08-20T02:37:57;12.07;;;8.43;;
10333;SDS011;5212;47.892;16.406;2023-08-20T02:40:24;12.53;;;9.17;;
10333;SDS011;5212;47.892;16.406;2023-08-20T02:42:50;13.70;;;9.60;;
10333;SDS011;5212;47.892;16.406;2023-08-20T02:45:16;11.13;;;8.63;;
10333;SDS011;5212;47.892;16.406;2023-08-20T02:47:42;13.33;;;8.33;;
10333;SDS011;5212;47.892;16.406;2023-08-20T02:50:08;14.47;;;9.63;;
10333;SDS011;5212;47.892;16.406;2023-08-20T02:52:34;13.07;;;9.03;;
10333;SDS011;5212;47.892;16.406;2023-08-20T02:55:01;11.70;;;8.97;;
10333;SDS011;5212;47.892;16.406;2023-08-20T02:57:29;12.43;;;8.23;;
10333;SDS011;5212;47.892;16.406;2023-08-20T02:59:55;12.60;;;8.40;;
10333;SDS011;5212;47.892;16.406;2023-08-20T03:02:21;13.53;;;8.83;;
10333;SDS011;5212;47.892;16.406;2023-08-20T03:04:47;13.50;;;9.53;;
10333;SDS011;5212;47.892;16.406;2023-08-20T03:07:14;14.13;;;9.43;;
10333;SDS011;5212;47.892;16.406;2023-08-20T03:09:39;13.93;;;9.53;;
10333;SDS011;5212;47.892;16.406;2023-08-20T03:12:07;13.77;;;9.60;;
10333;SDS011;5212;47.892;16.406;2023-08-20T03:14:33;13.10;;;8.43;;
10333;SDS011;5212;47.892;16.406;2023-08-20T03:16:59;12.93;;;8.23;;
10333;SDS011;5212;47.892;16.406;2023-08-20T03:19:25;14.07;;;9.30;;
10333;SDS011;5212;47.892;16.406;2023-08-20T03:21:51;12.70;;;9.67;;
10333;SDS011;5212;47.892;16.406;2023-08-20T03:24:17;13.00;;;9.30;;
10333;SDS011;5212;47.892;16.406;2023-08-20T03:26:43;12.70;;;8.87;;
10333;SDS011;5212;47.892;16.406;2023-08-20T03:29:12;12.40;;;8.87;;
10333;SDS011;5212;47.892;16.406;2023-08-20T03:31:38;13.40;;;8.57;;
10333;SDS011;5212;47.892;16.406;2023-08-20T03:34:04;9.30;;;7.27;;
10333;SDS011;5212;47.892;16.406;2023-08-20T03:36:30;10.37;;;7.57;;
10333;SDS011;5212;47.892;16.406;2023-08-20T03:38:57;9.97;;;7.60;;
10333;SDS011;5212;47.892;16.406;2023-08-20T03:41:23;11.33;;;7.83;;
10333;SDS011;5212;47.892;16.406;2023-08-20T03:43:49;11.67;;;7.57;;
10333;SDS011;5212;47.892;16.406;2023-08-20T03:46:15;10.00;;;7.17;;
10333;SDS011;5212;47.892;16.406;2023-08-20T03:48:42;9.73;;;7.47;;
10333;SDS011;5212;47.892;16.406;2023-08-20T03:51:08;10.77;;;7.33;;
10333;SDS011;5212;47.892;16.406;2023-08-20T03:53:34;12.97;;;8.43;;
10333;SDS011;5212;47.892;16.406;2023-08-20T03:56:00;13.07;;;8.80;;
10333;SDS011;5212;47.892;16.406;2023-08-20T03:58:26;13.63;;;9.60;;
10333;SDS011;5212;47.892;16.406;2023-08-20T04:00:52;12.87;;;9.60;;
10333;SDS011;5212;47.892;16.406;2023-08-20T04:03:18;13.00;;;8.67;;
10333;SDS011;5212;47.892;16.406;2023-08-20T04:05:44;12.37;;;9.27;;
10333;SDS011;5212;47.892;16.406;2023-08-20T04:08:11;12.93;;;9.57;;
10333;SDS011;5212;47.892;16.406;2023-08-20T04:10:41;12.37;;;9.13;;
10333;SDS011;5212;47.892;16.406;2023-08-20T04:13:08;13.33;;;9.07;;
10333;SDS011;5212;47.892;16.406;2023-08-20T04:15:34;12.67;;;8.80;;
10333;SDS011;5212;47.892;16.406;2023-08-20T04:18:00;12.20;;;9.00;;
10333;SDS011;5212;47.892;16.406;2023-08-20T04:20:27;11.70;;;8.77;;
10333;SDS011;5212;47.892;16.406;2023-08-20T04:22:53;12.23;;;8.30;;
10333;SDS011;5212;47.892;16.406;2023-08-20T04:25:19;11.27;;;8.27;;
10333;SDS011;5212;47.892;16.406;2023-08-20T04:27:45;11.87;;;7.80;;
10333;SDS011;5212;47.892;16.406;2023-08-20T04:30:11;14.27;;;8.33;;
10333;SDS011;5212;47.892;16.406;2023-08-20T04:32:37;12.00;;;8.80;;
10333;SDS011;5212;47.892;16.406;2023-08-20T04:35:04;11.23;;;8.40;;
10333;SDS011;5212;47.892;16.406;2023-08-20T04:37:31;11.13;;;8.30;;
10333;SDS011;5212;47.892;16.406;2023-08-20T04:39:57;11.80;;;8.47;;
10333;SDS011;5212;47.892;16.406;2023-08-20T04:42:23;12.00;;;8.77;;
10333;SDS011;5212;47.892;16.406;2023-08-20T04:44:49;11.40;;;8.43;;
10333;SDS011;5212;47.892;16.406;2023-08-20T04:47:15;12.33;;;9.10;;
10333;SDS011;5212;47.892;16.406;2023-08-20T04:49:41;12.57;;;9.30;;
10333;SDS011;5212;47.892;16.406;2023-08-20T04:52:07;12.10;;;9.03;;
10333;SDS011;5212;47.892;16.406;2023-08-20T04:54:33;11.47;;;8.77;;
10333;SDS011;5212;47.892;16.406;2023-08-20T04:56:59;13.33;;;9.47;;
10333;SDS011;5212;47.892;16.406;2023-08-20T04:59:25;12.20;;;8.73;;
10333;SDS011;5212;47.892;16.406;2023-08-20T05:01:51;13.13;;;10.03;;
10333;SDS011;5212;47.892;16.406;2023-08-20T05:04:17;14.10;;;10.20;;
10333;SDS011;5212;47.892;16.406;2023-08-20T05:06:43;18.33;;;11.33;;
10333;SDS011;5212;47.892;16.406;2023-08-20T05:09:09;14.53;;;10.33;;
10333;SDS011;5212;47.892;16.406;2023-08-20T05:11:36;15.67;;;11.40;;
10333;SDS011;5212;47.892;16.406;2023-08-20T05:14:03;16.67;;;9.63;;
10333;SDS011;5212;47.892;16.406;2023-08-20T05:16:29;15.27;;;10.93;;
10333;SDS011;5212;47.892;16.406;2023-08-20T05:18:55;15.47;;;11.23;;
10333;SDS011;5212;47.892;16.406;2023-08-20T05:21:21;16.47;;;11.37;;
10333;SDS011;5212;47.892;16.406;2023-08-20T05:23:47;14.33;;;10.83;;
10333;SDS011;5212;47.892;16.406;2023-08-20T05:26:13;15.00;;;10.33;;
10333;SDS011;5212;47.892;16.406;2023-08-20T05:28:39;14.10;;;10.60;;
10333;SDS011;5212;47.892;16.406;2023-08-20T05:31:05;15.57;;;10.43;;
10333;SDS011;5212;47.892;16.406;2023-08-20T05:33:31;14.87;;;10.57;;
10333;SDS011;5212;47.892;16.406;2023-08-20T05:35:57;16.50;;;10.70;;
10333;SDS011;5212;47.892;16.406;2023-08-20T05:38:24;14.50;;;10.50;;
10333;SDS011;5212;47.892;16.406;2023-08-20T05:40:50;14.77;;;10.70;;
10333;SDS011;5212;47.892;16.406;2023-08-20T05:43:16;14.10;;;10.20;;
10333;SDS011;5212;47.892;16.406;2023-08-20T05:45:43;14.80;;;10.60;;
10333;SDS011;5212;47.892;16.406;2023-08-20T05:48:09;14.03;;;9.37;;
10333;SDS011;5212;47.892;16.406;2023-08-20T05:50:35;13.07;;;9.60;;
10333;SDS011;5212;47.892;16.406;2023-08-20T05:53:01;13.13;;;9.67;;
10333;SDS011;5212;47.892;16.406;2023-08-20T05:55:27;13.07;;;10.13;;
10333;SDS011;5212;47.892;16.406;2023-08-20T05:57:53;14.67;;;10.57;;
10333;SDS011;5212;47.892;16.406;2023-08-20T06:00:19;14.37;;;10.30;;
10333;SDS011;5212;47.892;16.406;2023-08-20T06:02:46;13.60;;;10.13;;
10333;SDS011;5212;47.892;16.406;2023-08-20T06:05:12;13.23;;;9.83;;
10333;SDS011;5212;47.892;16.406;2023-08-20T06:07:38;12.17;;;9.30;;
10333;SDS011;5212;47.892;16.406;2023-08-20T06:10:05;12.73;;;9.43;;
10333;SDS011;5212;47.892;16.406;2023-08-20T06:12:31;12.43;;;9.20;;
10333;SDS011;5212;47.892;16.406;2023-08-20T06:14:57;12.73;;;9.40;;
10333;SDS011;5212;47.892;16.406;2023-08-20T06:17:23;12.47;;;10.07;;
10333;SDS011;5212;47.892;16.406;2023-08-20T06:19:50;12.80;;;9.87;;
10333;SDS011;5212;47.892;16.406;2023-08-20T06:22:16;11.20;;;8.97;;
10333;SDS011;5212;47.892;16.406;2023-08-20T06:24:42;11.30;;;9.30;;
10333;SDS011;5212;47.892;16.406;2023-08-20T06:27:08;12.83;;;10.17;;
10333;SDS011;5212;47.892;16.406;2023-08-20T06:29:34;12.87;;;10.23;;
10333;SDS011;5212;47.892;16.406;2023-08-20T06:32:00;15.87;;;11.40;;
10333;SDS011;5212;47.892;16.406;2023-08-20T06:34:27;13.37;;;10.17;;
10333;SDS011;5212;47.892;16.406;2023-08-20T06:36:54;12.03;;;9.60;;
10333;SDS011;5212;47.892;16.406;2023-08-20T06:39:20;13.33;;;10.00;;
10333;SDS011;5212;47.892;16.406;2023-08-20T06:41:46;11.37;;;9.47;;
10333;SDS011;5212;47.892;16.406;2023-08-20T06:44:12;11.83;;;9.53;;
10333;SDS011;5212;47.892;16.406;2023-08-20T06:46:38;12.77;;;9.67;;
10333;SDS011;5212;47.892;16.406;2023-08-20T06:49:04;10.90;;;8.73;;
10333;SDS011;5212;47.892;16.406;2023-08-20T06:51:30;13.43;;;9.50;;
10333;SDS011;5212;47.892;16.406;2023-08-20T06:53:57;13.03;;;10.47;;
10333;SDS011;5212;47.892;16.406;2023-08-20T06:56:23;13.03;;;10.30;;
10333;SDS011;5212;47.892;16.406;2023-08-20T06:58:49;13.80;;;11.07;;
10333;SDS011;5212;47.892;16.406;2023-08-20T07:01:15;16.43;;;12.77;;
10333;SDS011;5212;47.892;16.406;2023-08-20T07:03:41;14.50;;;11.30;;
10333;SDS011;5212;47.892;16.406;2023-08-20T07:06:09;16.60;;;12.03;;
10333;SDS011;5212;47.892;16.406;2023-08-20T07:08:35;16.73;;;12.17;;
10333;SDS011;5212;47.892;16.406;2023-08-20T07:11:04;14.43;;;10.43;;
10333;SDS011;5212;47.892;16.406;2023-08-20T07:13:30;13.17;;;9.97;;
10333;SDS011;5212;47.892;16.406;2023-08-20T07:15:56;11.17;;;8.90;;
10333;SDS011;5212;47.892;16.406;2023-08-20T07:18:22;13.20;;;9.60;;
10333;SDS011;5212;47.892;16.406;2023-08-20T07:20:49;12.40;;;8.93;;
10333;SDS011;5212;47.892;16.406;2023-08-20T07:23:16;13.00;;;9.93;;
10333;SDS011;5212;47.892;16.406;2023-08-20T07:25:42;11.90;;;9.17;;
10333;SDS011;5212;47.892;16.406;2023-08-20T07:28:10;11.97;;;9.37;;
10333;SDS011;5212;47.892;16.406;2023-08-20T07:30:36;11.20;;;8.63;;
10333;SDS011;5212;47.892;16.406;2023-08-20T07:33:03;11.03;;;9.07;;
10333;SDS011;5212;47.892;16.406;2023-08-20T07:35:29;9.73;;;7.67;;
10333;SDS011;5212;47.892;16.406;2023-08-20T07:37:55;9.93;;;7.80;;
10333;SDS011;5212;47.892;16.406;2023-08-20T07:40:21;10.40;;;7.97;;
10333;SDS011;5212;47.892;16.406;2023-08-20T07:42:47;10.90;;;8.13;;
10333;SDS011;5212;47.892;16.406;2023-08-20T07:45:16;9.30;;;7.83;;
10333;SDS011;5212;47.892;16.406;2023-08-20T07:47:42;11.30;;;9.43;;
10333;SDS011;5212;47.892;16.406;2023-08-20T07:50:08;11.03;;;9.00;;
10333;SDS011;5212;47.892;16.406;2023-08-20T07:52:34;11.37;;;9.03;;
10333;SDS011;5212;47.892;16.406;2023-08-20T07:55:00;11.23;;;9.07;;
10333;SDS011;5212;47.892;16.406;2023-08-20T07:57:26;10.03;;;8.67;;
10333;SDS011;5212;47.892;16.406;2023-08-20T07:59:52;10.13;;;8.47;;
10333;SDS011;5212;47.892;16.406;2023-08-20T08:02:19;10.53;;;8.60;;
10333;SDS011;5212;47.892;16.406;2023-08-20T08:04:45;10.13;;;8.33;;
10333;SDS011;5212;47.892;16.406;2023-08-20T08:07:11;10.70;;;9.30;;
10333;SDS011;5212;47.892;16.406;2023-08-20T08:09:37;11.50;;;8.83;;
10333;SDS011;5212;47.892;16.406;2023-08-20T08:12:03;10.83;;;8.90;;
10333;SDS011;5212;47.892;16.406;2023-08-20T08:14:30;8.77;;;7.70;;
10333;SDS011;5212;47.892;16.406;2023-08-20T08:16:56;11.20;;;9.47;;
10333;SDS011;5212;47.892;16.406;2023-08-20T08:19:23;11.03;;;8.87;;
10333;SDS011;5212;47.892;16.406;2023-08-20T08:21:49;8.73;;;7.80;;
10333;SDS011;5212;47.892;16.406;2023-08-20T08:24:15;9.20;;;7.63;;
10333;SDS011;5212;47.892;16.406;2023-08-20T08:26:41;9.20;;;7.60;;
10333;SDS011;5212;47.892;16.406;2023-08-20T08:29:07;12.77;;;9.10;;
10333;SDS011;5212;47.892;16.406;2023-08-20T08:31:34;10.07;;;8.07;;
10333;SDS011;5212;47.892;16.406;2023-08-20T08:34:01;11.23;;;9.07;;
10333;SDS011;5212;47.892;16.406;2023-08-20T08:36:28;9.63;;;7.97;;
10333;SDS011;5212;47.892;16.406;2023-08-20T08:38:54;10.47;;;8.30;;
10333;SDS011;5212;47.892;16.406;2023-08-20T08:41:21;9.20;;;7.87;;
10333;SDS011;5212;47.892;16.406;2023-08-20T08:43:47;9.87;;;8.13;;
10333;SDS011;5212;47.892;16.406;2023-08-20T08:46:14;10.23;;;8.27;;
10333;SDS011;5212;47.892;16.406;2023-08-20T08:48:42;11.30;;;8.63;;
10333;SDS011;5212;47.892;16.406;2023-08-20T08:51:08;8.80;;;7.43;;
10333;SDS011;5212;47.892;16.406;2023-08-20T08:53:35;10.83;;;8.73;;
10333;SDS011;5212;47.892;16.406;2023-08-20T08:56:01;12.37;;;7.93;;
10333;SDS011;5212;47.892;16.406;2023-08-20T08:58:30;10.73;;;8.67;;
10333;SDS011;5212;47.892;16.406;2023-08-20T09:00:56;8.37;;;7.33;;
10333;SDS011;5212;47.892;16.406;2023-08-20T09:03:22;7.33;;;6.40;;
10333;SDS011;5212;47.892;16.406;2023-08-20T09:05:50;13.67;;;6.17;;
10333;SDS011;5212;47.892;16.406;2023-08-20T09:08:20;5.87;;;5.27;;
10333;SDS011;5212;47.892;16.406;2023-08-20T09:10:47;6.60;;;5.90;;
10333;SDS011;5212;47.892;16.406;2023-08-20T09:13:15;7.63;;;6.27;;
10333;SDS011;5212;47.892;16.406;2023-08-20T09:15:41;7.97;;;6.70;;
10333;SDS011;5212;47.892;16.406;2023-08-20T09:18:09;7.30;;;6.57;;
10333;SDS011;5212;47.892;16.406;2023-08-20T09:20:35;8.00;;;6.97;;
10333;SDS011;5212;47.892;16.406;2023-08-20T09:23:01;7.77;;;6.87;;
10333;SDS011;5212;47.892;16.406;2023-08-20T09:25:27;8.13;;;7.00;;
10333;SDS011;5212;47.892;16.406;2023-08-20T09:27:54;9.63;;;7.60;;
10333;SDS011;5212;47.892;16.406;2023-08-20T09:30:20;9.63;;;7.00;;
10333;SDS011;5212;47.892;16.406;2023-08-20T09:32:47;8.57;;;6.80;;
10333;SDS011;5212;47.892;16.406;2023-08-20T09:35:28;9.17;;;6.63;;
10333;SDS011;5212;47.892;16.406;2023-08-20T09:37:58;8.83;;;7.10;;
10333;SDS011;5212;47.892;16.406;2023-08-20T09:40:24;9.53;;;6.67;;
10333;SDS011;5212;47.892;16.406;2023-08-20T09:42:50;8.97;;;7.43;;
10333;SDS011;5212;47.892;16.406;2023-08-20T09:45:18;9.17;;;7.07;;
10333;SDS011;5212;47.892;16.406;2023-08-20T09:47:44;7.87;;;6.80;;
10333;SDS011;5212;47.892;16.406;2023-08-20T09:50:14;7.33;;;6.27;;
10333;SDS011;5212;47.892;16.406;2023-08-20T09:52:44;7.23;;;6.43;;
10333;SDS011;5212;47.892;16.406;2023-08-20T09:55:16;7.87;;;6.47;;
10333;SDS011;5212;47.892;16.406;2023-08-20T09:57:43;8.67;;;6.10;;
10333;SDS011;5212;47.892;16.406;2023-08-20T10:00:09;9.37;;;6.70;;
10333;SDS011;5212;47.892;16.406;2023-08-20T10:02:38;8.13;;;6.60;;
10333;SDS011;5212;47.892;16.406;2023-08-20T10:05:05;7.23;;;6.30;;
10333;SDS011;5212;47.892;16.406;2023-08-20T10:07:32;7.43;;;6.17;;
10333;SDS011;5212;47.892;16.406;2023-08-20T10:09:58;9.97;;;6.67;;
10333;SDS011;5212;47.892;16.406;2023-08-20T10:12:25;6.37;;;5.60;;
10333;SDS011;5212;47.892;16.406;2023-08-20T10:14:52;7.80;;;6.57;;
10333;SDS011;5212;47.892;16.406;2023-08-20T10:17:18;6.87;;;6.17;;
10333;SDS011;5212;47.892;16.406;2023-08-20T10:19:45;9.37;;;6.87;;
10333;SDS011;5212;47.892;16.406;2023-08-20T10:22:12;8.53;;;6.90;;
10333;SDS011;5212;47.892;16.406;2023-08-20T10:24:39;7.47;;;6.63;;
10333;SDS011;5212;47.892;16.406;2023-08-20T10:27:06;7.33;;;6.30;;
10333;SDS011;5212;47.892;16.406;2023-08-20T10:29:34;7.87;;;6.40;;
10333;SDS011;5212;47.892;16.406;2023-08-20T10:32:01;6.82;;;6.13;;
10333;SDS011;5212;47.892;16.406;2023-08-20T10:34:37;9.10;;;7.23;;
10333;SDS011;5212;47.892;16.406;2023-08-20T10:37:09;7.80;;;5.80;;
10333;SDS011;5212;47.892;16.406;2023-08-20T10:39:35;8.33;;;7.20;;
10333;SDS011;5212;47.892;16.406;2023-08-20T10:42:21;7.87;;;6.50;;
10333;SDS011;5212;47.892;16.406;2023-08-20T10:44:58;7.53;;;6.70;;
10333;SDS011;5212;47.892;16.406;2023-08-20T10:47:25;9.30;;;7.03;;
10333;SDS011;5212;47.892;16.406;2023-08-20T10:49:51;8.63;;;7.20;;
10333;SDS011;5212;47.892;16.406;2023-08-20T10:52:18;7.87;;;7.07;;
10333;SDS011;5212;47.892;16.406;2023-08-20T10:54:44;10.20;;;6.43;;
10333;SDS011;5212;47.892;16.406;2023-08-20T10:57:11;6.57;;;5.87;;
10333;SDS011;5212;47.892;16.406;2023-08-20T10:59:39;7.00;;;6.13;;
10333;SDS011;5212;47.892;16.406;2023-08-20T11:02:06;7.30;;;6.10;;
10333;SDS011;5212;47.892;16.406;2023-08-20T11:04:37;6.93;;;5.63;;
10333;SDS011;5212;47.892;16.406;2023-08-20T11:07:04;8.40;;;6.00;;
10333;SDS011;5212;47.892;16.406;2023-08-20T11:09:31;8.23;;;6.07;;
10333;SDS011;5212;47.892;16.406;2023-08-20T11:11:57;7.17;;;6.07;;
10333;SDS011;5212;47.892;16.406;2023-08-20T11:14:24;6.97;;;6.27;;
10333;SDS011;5212;47.892;16.406;2023-08-20T11:16:50;6.97;;;5.77;;
10333;SDS011;5212;47.892;16.406;2023-08-20T11:19:19;6.77;;;5.80;;
10333;SDS011;5212;47.892;16.406;2023-08-20T11:21:45;7.27;;;6.10;;
10333;SDS011;5212;47.892;16.406;2023-08-20T11:24:12;6.67;;;5.97;;
10333;SDS011;5212;47.892;16.406;2023-08-20T11:26:39;7.03;;;6.13;;
10333;SDS011;5212;47.892;16.406;2023-08-20T11:29:06;8.30;;;5.50;;
10333;SDS011;5212;47.892;16.406;2023-08-20T11:31:32;6.07;;;5.37;;
10333;SDS011;5212;47.892;16.406;2023-08-20T11:33:58;5.93;;;5.10;;
10333;SDS011;5212;47.892;16.406;2023-08-20T11:36:24;6.50;;;5.80;;
10333;SDS011;5212;47.892;16.406;2023-08-20T11:38:50;7.80;;;5.70;;
10333;SDS011;5212;47.892;16.406;2023-08-20T11:41:17;8.70;;;5.47;;
10333;SDS011;5212;47.892;16.406;2023-08-20T11:43:44;6.50;;;4.77;;
10333;SDS011;5212;47.892;16.406;2023-08-20T11:46:12;5.97;;;5.20;;
10333;SDS011;5212;47.892;16.406;2023-08-20T11:48:38;6.37;;;5.73;;
10333;SDS011;5212;47.892;16.406;2023-08-20T11:51:04;6.23;;;5.50;;
10333;SDS011;5212;47.892;16.406;2023-08-20T11:53:31;6.30;;;5.30;;
10333;SDS011;5212;47.892;16.406;2023-08-20T11:55:57;7.13;;;5.85;;
10333;SDS011;5212;47.892;16.406;2023-08-20T11:58:23;8.00;;;6.00;;
10333;SDS011;5212;47.892;16.406;2023-08-20T12:00:49;6.40;;;5.57;;
10333;SDS011;5212;47.892;16.406;2023-08-20T12:03:17;5.30;;;4.80;;
10333;SDS011;5212;47.892;16.406;2023-08-20T12:05:44;6.40;;;5.20;;
10333;SDS011;5212;47.892;16.406;2023-08-20T12:08:14;6.67;;;5.57;;
10333;SDS011;5212;47.892;16.406;2023-08-20T12:10:41;6.67;;;5.40;;
10333;SDS011;5212;47.892;16.406;2023-08-20T12:13:08;6.40;;;5.07;;
10333;SDS011;5212;47.892;16.406;2023-08-20T12:15:34;6.27;;;4.80;;
10333;SDS011;5212;47.892;16.406;2023-08-20T12:18:01;7.20;;;5.25;;
10333;SDS011;5212;47.892;16.406;2023-08-20T12:20:29;8.23;;;5.35;;
10333;SDS011;5212;47.892;16.406;2023-08-20T12:22:58;6.70;;;5.60;;
10333;SDS011;5212;47.892;16.406;2023-08-20T12:25:25;5.53;;;4.60;;
10333;SDS011;5212;47.892;16.406;2023-08-20T12:27:51;5.60;;;4.93;;
10333;SDS011;5212;47.892;16.406;2023-08-20T12:30:17;6.57;;;5.70;;
10333;SDS011;5212;47.892;16.406;2023-08-20T12:32:44;6.37;;;5.63;;
10333;SDS011;5212;47.892;16.406;2023-08-20T12:35:10;7.78;;;6.90;;
10333;SDS011;5212;47.892;16.406;2023-08-20T12:37:36;7.97;;;5.82;;
10333;SDS011;5212;47.892;16.406;2023-08-20T12:40:02;6.60;;;5.90;;
10333;SDS011;5212;47.892;16.406;2023-08-20T12:42:32;7.55;;;5.55;;
10333;SDS011;5212;47.892;16.406;2023-08-20T12:44:58;7.32;;;6.43;;
10333;SDS011;5212;47.892;16.406;2023-08-20T12:47:25;8.27;;;6.40;;
10333;SDS011;5212;47.892;16.406;2023-08-20T12:49:51;7.97;;;6.47;;
10333;SDS011;5212;47.892;16.406;2023-08-20T12:52:17;6.67;;;5.83;;
10333;SDS011;5212;47.892;16.406;2023-08-20T12:54:43;9.10;;;5.97;;
10333;SDS011;5212;47.892;16.406;2023-08-20T12:57:09;8.03;;;5.80;;
10333;SDS011;5212;47.892;16.406;2023-08-20T12:59:35;6.20;;;5.60;;
10333;SDS011;5212;47.892;16.406;2023-08-20T13:02:01;6.77;;;5.70;;
10333;SDS011;5212;47.892;16.406;2023-08-20T13:04:28;6.50;;;5.83;;
10333;SDS011;5212;47.892;16.406;2023-08-20T13:06:54;7.17;;;6.27;;
10333;SDS011;5212;47.892;16.406;2023-08-20T13:09:22;8.30;;;6.37;;
10333;SDS011;5212;47.892;16.406;2023-08-20T13:11:48;8.73;;;6.30;;
10333;SDS011;5212;47.892;16.406;2023-08-20T13:14:15;6.87;;;6.17;;
10333;SDS011;5212;47.892;16.406;2023-08-20T13:16:41;7.30;;;6.27;;
10333;SDS011;5212;47.892;16.406;2023-08-20T13:19:08;7.57;;;6.30;;
10333;SDS011;5212;47.892;16.406;2023-08-20T13:21:34;7.33;;;6.17;;
10333;SDS011;5212;47.892;16.406;2023-08-20T13:24:00;7.67;;;5.67;;
10333;SDS011;5212;47.892;16.406;2023-08-20T13:26:27;7.20;;;5.80;;
10333;SDS011;5212;47.892;16.406;2023-08-20T13:28:53;7.03;;;6.00;;
10333;SDS011;5212;47.892;16.406;2023-08-20T13:31:19;7.57;;;6.13;;
10333;SDS011;5212;47.892;16.406;2023-08-20T13:33:45;10.57;;;6.40;;
10333;SDS011;5212;47.892;16.406;2023-08-20T13:36:11;7.93;;;6.03;;
10333;SDS011;5212;47.892;16.406;2023-08-20T13:38:37;7.23;;;6.10;;
10333;SDS011;5212;47.892;16.406;2023-08-20T13:41:03;7.03;;;5.93;;
10333;SDS011;5212;47.892;16.406;2023-08-20T13:43:30;6.03;;;5.43;;
10333;SDS011;5212;47.892;16.406;2023-08-20T13:45:56;7.27;;;5.83;;
10333;SDS011;5212;47.892;16.406;2023-08-20T13:48:22;7.47;;;6.00;;
10333;SDS011;5212;47.892;16.406;2023-08-20T13:50:48;7.27;;;6.23;;
10333;SDS011;5212;47.892;16.406;2023-08-20T13:53:14;6.60;;;5.93;;
10333;SDS011;5212;47.892;16.406;2023-08-20T13:55:40;7.20;;;5.77;;
10333;SDS011;5212;47.892;16.406;2023-08-20T13:58:06;6.40;;;5.27;;
10333;SDS011;5212;47.892;16.406;2023-08-20T14:00:33;6.23;;;5.57;;
10333;SDS011;5212;47.892;16.406;2023-08-20T14:02:59;6.97;;;5.17;;
10333;SDS011;5212;47.892;16.406;2023-08-20T14:05:25;6.43;;;5.03;;
10333;SDS011;5212;47.892;16.406;2023-08-20T14:07:51;5.90;;;5.30;;
10333;SDS011;5212;47.892;16.406;2023-08-20T14:10:17;6.70;;;5.00;;
10333;SDS011;5212;47.892;16.406;2023-08-20T14:12:43;6.00;;;5.07;;
10333;SDS011;5212;47.892;16.406;2023-08-20T14:15:09;6.47;;;5.23;;
10333;SDS011;5212;47.892;16.406;2023-08-20T14:17:36;6.17;;;4.87;;
10333;SDS011;5212;47.892;16.406;2023-08-20T14:20:02;5.23;;;4.57;;
10333;SDS011;5212;47.892;16.406;2023-08-20T14:22:30;5.83;;;5.13;;
10333;SDS011;5212;47.892;16.406;2023-08-20T14:24:56;7.97;;;5.30;;
10333;SDS011;5212;47.892;16.406;2023-08-20T14:27:22;8.33;;;5.90;;
10333;SDS011;5212;47.892;16.406;2023-08-20T14:29:48;6.43;;;5.37;;
10333;SDS011;5212;47.892;16.406;2023-08-20T14:32:14;8.03;;;5.27;;
10333;SDS011;5212;47.892;16.406;2023-08-20T14:34:40;6.53;;;5.30;;
10333;SDS011;5212;47.892;16.406;2023-08-20T14:37:06;6.33;;;5.53;;